Decoded Metar for CYSJ (ST. JOHN in NB, CANADA) (IATA:YSJ) | Meteo·Mobile Aviation Weather
aviador You're here:

CYSJ Decoded Metar

ST. JOHN in NB, CANADA
Report Time2019-07-24 04:00:00
UTC Time2019-07-24 04:54:58
Flight Rules vfr VFR
WindCalm
Visibility9999 m
Phenomena:Shallow Fog
Clouds:Scattered 120 Hf
Broken 240 Hf
Ceiling24,000 ft
Temp15°C (ISA +1)
Dew Point15°C (100% RH)
QNH1011 hPa
Density Alt738 ft
Elevation358 ft
Report Wrong Elevation
Raw Report
CYSJ 240400Z 00000KT 15SM MIFG SCT120 BKN240 15/15 A2986 RMK
AC3CI3 SLP114 DENSITY ALT 500FT=

Extra information for CYSJ:More info

Metar Taf Metar & Taf Last 4 Metars F.Rules Stats Wind Profile Meteogram Temp Stats Airport Information Weather charts Add Link Nearby VenuesMetar ALERT Operation Metar Decoded Social comments